Terminal Aerodrome Forecast
Issued by NWS

Current Version | Previous Version | Text Only | Print | Product List | Glossary On
Versions: 1 2 3 4 5 6 7 8 9 10 11 12 13 14
000
FTUS44 KLIX 012300
TAFGPT
TAF
KGPT 012336Z 0200/0224 17010KT P6SM FEW025
     FM021000 16004KT P6SM BKN025
     FM021400 14004KT P6SM SCT040 SCT250 PROB30 0217/0221 VRB20KT
      2SM TSRA BKN030CB=

USA.gov is the U.S. government's official web portal to all federal, state and local government web resources and services.